Time;durP1;ratioP1;P1;durP2;ratioP2;P2;SDS_P1;SDS_P2;PMS_P1;PMS_P2;Temp;Humidity;BMP_temperature;BMP_pressure;BME280_temperature;BME280_humidity;BME280_pressure;Samples;Min_cycle;Max_cycle;Signal;HPM_P1;HPM_P2
2022/12/13 00:00:14;;;;;;;40.67;16.63;;;-3.00;99.90;;;;;;5046683;28;20021;-76
2022/12/13 00:02:43;;;;;;;34.65;16.00;;;-3.00;99.90;;;;;;5031413;28;20102;-77
2022/12/13 00:05:09;;;;;;;32.28;16.60;;;-3.00;99.90;;;;;;5055277;28;20017;-77
2022/12/13 00:07:35;;;;;;;33.85;16.02;;;-3.00;99.90;;;;;;5054653;28;20432;-77
2022/12/13 00:10:01;;;;;;;34.17;16.40;;;-3.00;99.90;;;;;;5053277;28;20075;-76
2022/12/13 00:12:27;;;;;;;30.13;14.85;;;-3.00;99.90;;;;;;5054575;28;20086;-78
2022/12/13 00:14:53;;;;;;;33.20;17.00;;;-3.00;99.90;;;;;;5054320;28;20024;-78
2022/12/13 00:17:18;;;;;;;35.15;16.33;;;-3.00;99.90;;;;;;5046660;28;20355;-78
2022/12/13 00:19:46;;;;;;;29.48;15.40;;;-3.00;99.90;;;;;;5048908;28;20029;-75
2022/12/13 00:22:12;;;;;;;31.02;16.80;;;-3.00;99.90;;;;;;5054375;28;20028;-76
2022/12/13 00:24:38;;;;;;;35.58;15.70;;;-3.10;99.90;;;;;;5054099;28;20111;-77
2022/12/13 00:27:04;;;;;;;31.92;15.48;;;-3.10;99.90;;;;;;5054181;28;20126;-76
2022/12/13 00:29:30;;;;;;;30.40;15.27;;;-3.10;99.90;;;;;;5054459;28;20035;-76
2022/12/13 00:31:55;;;;;;;30.05;15.50;;;-3.20;99.90;;;;;;5039500;28;20056;-78
2022/12/13 00:34:21;;;;;;;27.60;15.48;;;-3.20;99.90;;;;;;5054518;28;20086;-77
2022/12/13 00:36:47;;;;;;;31.92;16.25;;;-3.20;99.90;;;;;;5054658;28;20082;-77
2022/12/13 00:39:15;;;;;;;34.22;15.80;;;-3.20;99.90;;;;;;5053328;28;20021;-77
2022/12/13 00:41:42;;;;;;;35.17;15.10;;;-3.20;99.90;;;;;;5054124;28;20039;-78
2022/12/13 00:44:10;;;;;;;35.00;16.58;;;-3.20;99.90;;;;;;5063487;28;20033;-76
2022/12/13 00:46:36;;;;;;;29.17;15.25;;;-3.10;99.90;;;;;;5065806;28;20025;-77
2022/12/13 00:49:02;;;;;;;34.08;15.00;;;-3.20;99.90;;;;;;5053924;28;20116;-75
2022/12/13 00:51:29;;;;;;;32.55;14.95;;;-3.20;99.90;;;;;;5046651;28;20125;-76
2022/12/13 00:53:55;;;;;;;29.63;15.00;;;-3.30;99.90;;;;;;5056199;28;20029;-77
2022/12/13 00:56:24;;;;;;;32.00;15.40;;;-3.30;99.90;;;;;;5054665;28;20086;-77
2022/12/13 00:58:50;;;;;;;35.17;15.68;;;-3.40;99.90;;;;;;5053754;28;20056;-77
2022/12/13 01:01:18;;;;;;;29.50;14.55;;;-3.30;99.90;;;;;;5035049;28;20024;-77
2022/12/13 01:03:44;;;;;;;31.90;13.93;;;-3.40;99.90;;;;;;5046406;28;20033;-76
2022/12/13 01:06:18;;;;;;;31.70;15.27;;;-3.40;99.90;;;;;;5053751;28;20032;-78
2022/12/13 01:08:44;;;;;;;33.35;14.75;;;-3.50;99.90;;;;;;5055411;28;20043;-77
2022/12/13 01:11:11;;;;;;;31.67;15.65;;;-3.50;99.90;;;;;;5053955;28;20025;-78
2022/12/13 01:13:37;;;;;;;36.90;15.50;;;-3.50;99.90;;;;;;5054596;28;20027;-77
2022/12/13 01:16:05;;;;;;;34.67;16.08;;;-3.50;99.90;;;;;;5054150;28;20021;-76
2022/12/13 01:18:31;;;;;;;28.77;14.18;;;-3.50;99.90;;;;;;5053694;28;20025;-76
2022/12/13 01:21:05;;;;;;;29.02;15.20;;;-3.60;99.90;;;;;;5052543;28;20040;-77
2022/12/13 01:23:31;;;;;;;29.95;13.60;;;-3.60;99.90;;;;;;5053067;28;20393;-76
2022/12/13 01:25:57;;;;;;;30.80;16.58;;;-3.60;99.90;;;;;;5044458;28;20036;-78
2022/12/13 01:28:23;;;;;;;39.92;16.08;;;-3.70;99.90;;;;;;5046441;28;20025;-78
2022/12/13 01:30:56;;;;;;;34.15;14.55;;;-3.70;99.90;;;;;;5032995;28;20502;-76
2022/12/13 01:33:24;;;;;;;34.13;16.23;;;-3.70;99.90;;;;;;5050865;28;20082;-77
2022/12/13 01:35:50;;;;;;;27.25;14.27;;;-3.80;99.90;;;;;;5053848;28;20013;-77
2022/12/13 01:38:17;;;;;;;41.33;16.80;;;-3.80;99.90;;;;;;5054402;28;20060;-76
2022/12/13 01:40:56;;;;;;;39.03;15.90;;;-3.80;99.90;;;;;;5053313;28;20021;-78
2022/12/13 01:43:42;;;;;;;38.53;18.00;;;-3.80;99.90;;;;;;5052979;28;20558;-79
2022/12/13 01:46:10;;;;;;;38.65;16.50;;;-3.80;99.90;;;;;;5052969;28;20155;-78
2022/12/13 01:48:51;;;;;;;34.22;16.15;;;-3.80;99.90;;;;;;5052871;28;20031;-77
2022/12/13 01:51:20;;;;;;;28.00;15.65;;;-3.80;99.90;;;;;;5055165;28;20029;-77
2022/12/13 01:53:47;;;;;;;33.53;17.38;;;-3.90;99.90;;;;;;5040385;28;20358;-77
2022/12/13 01:56:25;;;;;;;34.28;15.88;;;-3.90;99.90;;;;;;5052650;28;20053;-77
2022/12/13 01:58:53;;;;;;;37.55;16.17;;;-3.90;99.90;;;;;;5052542;28;20100;-76
2022/12/13 02:01:19;;;;;;;35.08;15.95;;;-4.00;99.90;;;;;;5053225;28;20059;-77
2022/12/13 02:03:44;;;;;;;33.30;15.88;;;-4.00;99.90;;;;;;5052458;28;20481;-77
2022/12/13 02:06:24;;;;;;;29.00;15.38;;;-4.00;99.90;;;;;;5053112;28;20028;-76
2022/12/13 02:08:49;;;;;;;28.98;14.63;;;-4.00;99.90;;;;;;5046623;28;20033;-77
2022/12/13 02:11:15;;;;;;;33.95;16.25;;;-4.00;99.90;;;;;;5039038;28;20026;-77
2022/12/13 02:13:41;;;;;;;32.60;15.50;;;-4.00;99.90;;;;;;5032598;28;20025;-77
2022/12/13 02:16:36;;;;;;;36.72;16.13;;;-4.00;99.90;;;;;;5032045;28;20075;-77
2022/12/13 02:19:20;;;;;;;32.63;15.80;;;-4.00;99.90;;;;;;5031615;28;20030;-77
2022/12/13 02:22:10;;;;;;;31.88;15.23;;;-4.00;99.90;;;;;;5037989;28;20022;-78
2022/12/13 02:25:14;;;;;;;36.47;15.23;;;-4.00;99.90;;;;;;5036720;28;20041;-78
2022/12/13 02:28:18;;;;;;;31.42;15.43;;;-4.00;99.90;;;;;;5033502;28;20034;-77
2022/12/13 02:30:53;;;;;;;33.13;16.40;;;-4.10;99.90;;;;;;5031292;28;20048;-77
2022/12/13 02:33:32;;;;;;;33.45;17.23;;;-4.00;99.90;;;;;;5037405;28;20021;-79
2022/12/13 02:36:11;;;;;;;32.55;15.95;;;-4.00;99.90;;;;;;5032816;28;20032;-76
2022/12/13 02:38:48;;;;;;;33.08;15.25;;;-4.10;99.90;;;;;;5036225;28;20382;-78
2022/12/13 02:42:06;;;;;;;29.55;14.90;;;-4.10;99.90;;;;;;5053356;28;20043;-76
2022/12/13 02:44:36;;;;;;;30.20;15.30;;;-4.10;99.90;;;;;;5064495;28;20025;-75
2022/12/13 02:47:05;;;;;;;34.40;16.05;;;-4.10;99.90;;;;;;5064146;28;20052;-77
2022/12/13 02:49:35;;;;;;;33.72;16.08;;;-4.10;99.90;;;;;;5056552;28;20028;-78
2022/12/13 02:52:02;;;;;;;38.08;16.25;;;-4.00;99.90;;;;;;5055400;28;20384;-78
2022/12/13 02:54:28;;;;;;;36.60;15.30;;;-4.00;99.90;;;;;;5043359;28;20025;-77
2022/12/13 02:56:58;;;;;;;35.58;16.75;;;-4.00;99.90;;;;;;5055169;28;20021;-78
2022/12/13 02:59:37;;;;;;;32.45;15.57;;;-3.90;99.90;;;;;;5044980;28;20026;-77
2022/12/13 03:02:22;;;;;;;30.10;16.85;;;-3.90;99.90;;;;;;5050460;28;20019;-78
2022/12/13 03:08:24;;;;;;;34.15;16.02;;;-3.80;99.90;;;;;;5053825;28;20036;-76
2022/12/13 03:11:01;;;;;;;33.53;15.65;;;-3.70;99.90;;;;;;5056551;28;20029;-79
2022/12/13 03:13:54;;;;;;;37.42;17.30;;;-3.70;99.90;;;;;;5056177;28;20107;-78
2022/12/13 03:16:28;;;;;;;33.53;16.95;;;-3.70;99.90;;;;;;5054359;28;20064;-78
2022/12/13 03:18:58;;;;;;;34.65;17.48;;;-3.70;99.90;;;;;;5055928;28;20080;-77
2022/12/13 03:21:25;;;;;;;37.47;17.17;;;-3.70;99.90;;;;;;5056619;28;20033;-77
2022/12/13 03:23:50;;;;;;;36.33;17.73;;;-3.70;99.90;;;;;;5055264;28;20369;-77
2022/12/13 03:26:20;;;;;;;37.60;19.42;;;-3.70;99.90;;;;;;5054955;28;20102;-77
2022/12/13 03:28:46;;;;;;;29.77;13.27;;;-3.70;99.90;;;;;;5055865;28;20025;-76
2022/12/13 03:31:11;;;;;;;39.83;17.83;;;-3.70;99.90;;;;;;5055315;28;20461;-78
2022/12/13 03:33:40;;;;;;;40.40;18.15;;;-3.70;99.90;;;;;;5055463;28;20021;-77
2022/12/13 03:36:06;;;;;;;38.40;16.73;;;-3.80;99.90;;;;;;5054973;28;20023;-78
2022/12/13 03:38:32;;;;;;;39.80;17.13;;;-3.80;99.90;;;;;;5056295;28;20025;-77
2022/12/13 03:41:10;;;;;;;36.85;16.55;;;-3.80;99.90;;;;;;5054457;28;20488;-77
2022/12/13 03:43:38;;;;;;;34.65;17.00;;;-3.80;99.90;;;;;;5043748;28;20466;-77
2022/12/13 03:46:04;;;;;;;34.05;16.40;;;-3.80;99.90;;;;;;5041762;28;20025;-77
2022/12/13 03:48:29;;;;;;;36.05;17.00;;;-3.80;99.90;;;;;;5055240;28;20021;-80
2022/12/13 03:50:55;;;;;;;39.80;18.23;;;-3.80;99.90;;;;;;5055924;28;20025;-78
2022/12/13 03:53:22;;;;;;;36.10;16.60;;;-3.80;99.90;;;;;;5056689;28;20048;-79
2022/12/13 03:55:47;;;;;;;40.13;18.38;;;-3.80;99.90;;;;;;5056422;28;20029;-78
2022/12/13 03:58:13;;;;;;;47.55;19.27;;;-3.80;99.90;;;;;;5040840;28;20056;-77
2022/12/13 04:00:39;;;;;;;38.92;17.98;;;-3.80;99.90;;;;;;5055196;28;20021;-77
2022/12/13 04:03:05;;;;;;;34.72;16.98;;;-3.80;99.90;;;;;;5054850;28;20041;-78
2022/12/13 04:05:32;;;;;;;36.42;17.40;;;-3.70;99.90;;;;;;5054619;28;20116;-76
2022/12/13 04:07:58;;;;;;;39.92;18.23;;;-3.70;99.90;;;;;;5057196;28;20072;-77
2022/12/13 04:10:24;;;;;;;36.35;17.13;;;-3.70;99.90;;;;;;5054646;28;20062;-77
2022/12/13 04:15:47;;;;;;;42.95;18.98;;;-3.60;99.90;;;;;;5054887;28;20532;-78
2022/12/13 04:18:15;;;;;;;38.85;18.40;;;-3.60;99.90;;;;;;5054868;28;20401;-77
2022/12/13 04:20:40;;;;;;;40.78;18.00;;;-2.60;99.90;;;;;;5054857;28;20048;-78
2022/12/13 04:23:06;;;;;;;48.92;20.63;;;-3.50;99.90;;;;;;5054644;28;20520;-77
2022/12/13 04:25:32;;;;;;;43.60;20.00;;;-3.60;99.90;;;;;;5055258;28;20489;-76
2022/12/13 04:27:57;;;;;;;50.25;20.63;;;-3.50;99.90;;;;;;5054742;28;20389;-77
2022/12/13 04:30:23;;;;;;;44.58;19.60;;;-3.40;99.90;;;;;;5053657;28;20044;-76
2022/12/13 04:32:48;;;;;;;39.85;19.95;;;-3.40;99.90;;;;;;5054592;28;20415;-77
2022/12/13 04:35:14;;;;;;;41.45;19.90;;;-3.40;99.90;;;;;;5054872;28;20495;-77
2022/12/13 04:37:42;;;;;;;40.75;19.10;;;-3.40;99.90;;;;;;5054239;28;20039;-76
2022/12/13 04:40:08;;;;;;;45.78;20.73;;;-3.40;99.90;;;;;;5050639;28;20020;-77
2022/12/13 04:42:34;;;;;;;41.33;19.75;;;-3.40;99.90;;;;;;5059270;28;20053;-77
2022/12/13 04:45:00;;;;;;;42.30;19.35;;;-3.40;99.90;;;;;;5068410;28;20083;-77
2022/12/13 04:47:25;;;;;;;47.08;20.38;;;-3.40;99.90;;;;;;5043301;28;20076;-77
2022/12/13 04:49:53;;;;;;;36.25;17.15;;;-3.40;99.90;;;;;;5049528;28;20476;-76
2022/12/13 04:52:19;;;;;;;43.72;18.65;;;-3.50;99.90;;;;;;5037166;28;20025;-77
2022/12/13 04:54:45;;;;;;;39.95;18.77;;;-3.50;99.90;;;;;;5049657;28;20075;-76
2022/12/13 04:57:11;;;;;;;39.90;18.73;;;-3.50;99.90;;;;;;5053584;28;20067;-77
2022/12/13 04:59:37;;;;;;;35.33;18.20;;;-3.50;99.90;;;;;;5053851;28;20025;-76
2022/12/13 05:02:05;;;;;;;43.92;19.20;;;-3.50;99.90;;;;;;5054099;28;20036;-77
2022/12/13 05:04:30;;;;;;;37.70;19.77;;;-3.50;99.90;;;;;;5052905;28;20516;-75
2022/12/13 05:06:56;;;;;;;40.25;19.92;;;-3.50;99.90;;;;;;5054296;28;20017;-77
2022/12/13 05:09:22;;;;;;;43.28;18.88;;;-3.50;99.90;;;;;;5054221;28;20021;-76
2022/12/13 05:11:48;;;;;;;44.72;18.05;;;-3.50;99.90;;;;;;5039622;28;20025;-77
2022/12/13 05:14:14;;;;;;;36.42;17.25;;;-3.60;99.90;;;;;;5054145;28;20147;-77
2022/12/13 05:16:39;;;;;;;46.60;19.40;;;-3.50;99.90;;;;;;5054764;28;20076;-76
2022/12/13 05:19:05;;;;;;;43.75;19.42;;;-3.50;99.90;;;;;;5053536;28;20043;-76
2022/12/13 05:21:33;;;;;;;37.50;17.58;;;-3.50;99.90;;;;;;5053717;28;20029;-78
2022/12/13 05:24:00;;;;;;;38.88;18.38;;;-3.50;99.90;;;;;;5054022;28;20388;-77
2022/12/13 05:26:27;;;;;;;39.42;18.85;;;-3.60;99.90;;;;;;5053469;28;20027;-75
2022/12/13 05:28:55;;;;;;;37.97;18.98;;;-3.60;99.90;;;;;;5053602;28;20060;-78
2022/12/13 05:31:20;;;;;;;38.22;18.85;;;-3.60;99.90;;;;;;5053613;28;20045;-77
2022/12/13 05:33:46;;;;;;;44.45;20.25;;;-3.60;99.90;;;;;;5052722;28;20036;-76
2022/12/13 05:36:11;;;;;;;40.33;19.50;;;-3.60;99.90;;;;;;5047439;28;20041;-77
2022/12/13 05:38:37;;;;;;;39.17;19.15;;;-3.60;99.90;;;;;;5046436;28;20024;-77
2022/12/13 05:41:03;;;;;;;45.53;20.17;;;-3.60;99.90;;;;;;5038242;28;20022;-77
2022/12/13 05:43:28;;;;;;;40.05;18.60;;;-3.60;99.90;;;;;;5047051;28;20389;-76
2022/12/13 05:45:54;;;;;;;43.92;18.90;;;-3.60;99.90;;;;;;5046173;28;20050;-77
2022/12/13 05:48:19;;;;;;;40.78;18.50;;;-3.70;99.90;;;;;;5053080;28;20025;-77
2022/12/13 05:50:45;;;;;;;37.63;19.15;;;-3.70;99.90;;;;;;5053624;28;20099;-78
2022/12/13 05:53:11;;;;;;;38.10;17.25;;;-3.70;99.90;;;;;;5053475;28;20028;-78
2022/12/13 05:55:37;;;;;;;32.67;17.38;;;-3.70;99.90;;;;;;5051967;28;20470;-77
2022/12/13 05:58:03;;;;;;;49.25;21.25;;;-3.70;99.90;;;;;;5046994;28;20151;-76
2022/12/13 06:00:29;;;;;;;41.15;18.60;;;-3.70;99.90;;;;;;5033023;28;20068;-77
2022/12/13 06:02:55;;;;;;;39.25;17.83;;;-3.80;99.90;;;;;;5031743;28;20041;-77
2022/12/13 06:05:21;;;;;;;49.97;19.60;;;-3.70;99.90;;;;;;5026713;28;20033;-74
2022/12/13 06:07:47;;;;;;;40.28;20.05;;;-3.80;99.90;;;;;;5035931;28;20026;-76
2022/12/13 06:10:13;;;;;;;43.95;19.23;;;-3.70;99.90;;;;;;5031965;28;20028;-77
2022/12/13 06:12:38;;;;;;;46.70;19.10;;;-3.80;99.90;;;;;;5030056;28;20071;-77
2022/12/13 06:15:05;;;;;;;45.63;18.80;;;-3.70;99.90;;;;;;5030376;28;20123;-76
2022/12/13 06:17:32;;;;;;;46.05;18.77;;;-3.70;99.90;;;;;;5031587;28;20021;-77
2022/12/13 06:19:57;;;;;;;34.67;17.80;;;-3.80;99.90;;;;;;5030773;28;20104;-77
2022/12/13 06:22:23;;;;;;;44.45;18.90;;;-3.70;99.90;;;;;;5030405;28;20164;-77
2022/12/13 06:24:49;;;;;;;41.92;20.00;;;-3.70;99.90;;;;;;5030966;28;20041;-78
2022/12/13 06:27:14;;;;;;;42.22;21.27;;;-3.70;99.90;;;;;;5031218;28;20036;-77
2022/12/13 06:29:40;;;;;;;39.53;18.40;;;-3.70;99.90;;;;;;5030403;28;20028;-76
2022/12/13 06:32:06;;;;;;;40.75;19.38;;;-3.70;99.90;;;;;;5030326;28;20061;-77
2022/12/13 06:34:33;;;;;;;43.38;19.80;;;-3.70;99.90;;;;;;5030987;28;20368;-78
2022/12/13 06:36:59;;;;;;;45.28;20.17;;;-3.80;99.90;;;;;;5030041;28;20390;-77
2022/12/13 06:39:25;;;;;;;43.38;19.40;;;-3.80;99.90;;;;;;5032206;28;20017;-77
2022/12/13 06:41:51;;;;;;;41.95;18.70;;;-3.80;99.90;;;;;;5040637;28;20025;-78
2022/12/13 06:44:16;;;;;;;38.90;18.70;;;-3.90;99.90;;;;;;5040763;28;20037;-79
2022/12/13 06:46:42;;;;;;;40.45;17.75;;;-3.90;99.90;;;;;;5033993;28;20105;-76
2022/12/13 06:49:07;;;;;;;45.25;20.05;;;-3.90;99.90;;;;;;5031928;28;20061;-78
2022/12/13 06:51:33;;;;;;;45.10;20.27;;;-3.90;99.90;;;;;;5034908;28;20017;-77
2022/12/13 06:54:03;;;;;;;39.95;20.02;;;-3.90;99.90;;;;;;5034360;28;20033;-77
2022/12/13 06:56:30;;;;;;;33.17;16.70;;;-4.00;99.90;;;;;;5034211;28;20018;-76
2022/12/13 06:58:56;;;;;;;34.75;18.00;;;-4.10;99.90;;;;;;5030999;28;20033;-77
2022/12/13 07:01:22;;;;;;;42.63;19.30;;;-4.10;99.90;;;;;;5031104;28;20053;-76
2022/12/13 07:03:47;;;;;;;37.83;18.73;;;-4.10;99.90;;;;;;5032282;28;20499;-76
2022/12/13 07:06:14;;;;;;;41.38;19.67;;;-4.10;99.90;;;;;;5030154;28;20021;-78
2022/12/13 07:08:41;;;;;;;42.10;19.67;;;-4.00;99.90;;;;;;5034576;28;20497;-77
2022/12/13 07:11:07;;;;;;;38.45;18.65;;;-4.00;99.90;;;;;;5038460;28;20025;-76
2022/12/13 07:13:33;;;;;;;41.40;20.35;;;-4.10;99.90;;;;;;5034276;28;20033;-77
2022/12/13 07:15:59;;;;;;;42.72;19.98;;;-4.00;99.90;;;;;;5033433;28;20373;-78
2022/12/13 07:18:25;;;;;;;40.90;18.67;;;-4.00;99.90;;;;;;5034283;28;20140;-77
2022/12/13 07:20:50;;;;;;;41.35;18.40;;;-4.00;99.90;;;;;;5034200;28;20018;-75
2022/12/13 07:23:16;;;;;;;41.80;18.75;;;-4.00;99.90;;;;;;5035005;28;20041;-78
2022/12/13 07:25:49;;;;;;;41.15;19.70;;;-4.00;99.90;;;;;;5033282;28;20025;-77
2022/12/13 07:28:14;;;;;;;43.88;19.88;;;-4.00;99.90;;;;;;5034418;28;20585;-76
2022/12/13 07:30:40;;;;;;;41.83;19.60;;;-4.10;99.90;;;;;;5034763;28;20084;-77
2022/12/13 07:33:06;;;;;;;39.70;18.73;;;-4.10;99.90;;;;;;5032672;28;20027;-76
2022/12/13 07:35:32;;;;;;;40.80;18.73;;;-4.10;99.90;;;;;;5035079;28;20072;-77
2022/12/13 07:37:58;;;;;;;38.05;18.80;;;-4.10;99.90;;;;;;5034746;28;20481;-76
2022/12/13 07:40:24;;;;;;;43.88;20.08;;;-4.10;99.90;;;;;;5035214;28;20116;-77
2022/12/13 07:42:54;;;;;;;37.80;18.50;;;-4.20;99.90;;;;;;5037811;28;20417;-77
2022/12/13 07:45:21;;;;;;;42.50;20.08;;;-4.20;99.90;;;;;;5035793;28;20030;-77
2022/12/13 07:47:47;;;;;;;38.90;19.05;;;-4.20;99.90;;;;;;5034363;28;20486;-78
2022/12/13 07:50:13;;;;;;;41.95;19.92;;;-4.20;99.90;;;;;;5037571;28;20028;-77
2022/12/13 07:52:41;;;;;;;39.42;18.98;;;-4.20;99.90;;;;;;5048913;28;20025;-77
2022/12/13 07:55:07;;;;;;;40.22;20.08;;;-4.20;99.90;;;;;;5055706;28;20013;-76
2022/12/13 07:57:33;;;;;;;45.75;20.50;;;-4.10;99.90;;;;;;5042911;28;20025;-77
2022/12/13 08:00:03;;;;;;;45.70;21.95;;;-4.10;99.90;;;;;;5033843;28;20515;-78
2022/12/13 08:02:28;;;;;;;42.63;19.83;;;-4.20;99.90;;;;;;5031552;28;20045;-77
2022/12/13 08:04:54;;;;;;;46.55;20.38;;;-4.10;99.90;;;;;;5035310;28;20065;-76
2022/12/13 08:07:20;;;;;;;49.53;21.42;;;-4.10;99.90;;;;;;5043313;28;20025;-78
2022/12/13 08:09:45;;;;;;;42.38;20.67;;;-4.10;99.90;;;;;;5043417;28;20583;-77
2022/12/13 08:12:11;;;;;;;40.55;19.10;;;-4.10;99.90;;;;;;5036274;28;20013;-78
2022/12/13 08:14:36;;;;;;;42.30;20.17;;;-4.20;99.90;;;;;;5035555;28;20033;-77
2022/12/13 08:17:02;;;;;;;43.40;18.90;;;-4.20;99.90;;;;;;5034998;28;20029;-78
2022/12/13 08:19:27;;;;;;;41.80;18.77;;;-4.20;99.90;;;;;;5034249;28;20017;-77
2022/12/13 08:21:55;;;;;;;38.97;19.38;;;-4.20;99.90;;;;;;5034329;28;20018;-78
2022/12/13 08:24:30;;;;;;;40.90;20.75;;;-4.20;99.90;;;;;;5043133;28;20032;-74
2022/12/13 08:27:00;;;;;;;40.95;19.42;;;-4.10;99.90;;;;;;5029217;28;20041;-77
2022/12/13 08:29:26;;;;;;;43.03;20.30;;;-4.10;99.90;;;;;;5035676;28;20437;-77
2022/12/13 08:31:51;;;;;;;41.72;19.33;;;-4.10;99.90;;;;;;5034279;28;20096;-77
2022/12/13 08:34:17;;;;;;;45.40;18.98;;;-4.10;99.90;;;;;;5035175;28;20120;-76
2022/12/13 08:36:43;;;;;;;43.28;19.38;;;-4.10;99.90;;;;;;5038597;28;20022;-75
2022/12/13 08:39:08;;;;;;;50.05;22.20;;;-4.00;99.90;;;;;;5041174;28;20034;-77
2022/12/13 08:41:34;;;;;;;47.33;19.48;;;-4.00;99.90;;;;;;5049769;28;20021;-74
2022/12/13 08:43:59;;;;;;;39.42;20.48;;;-4.00;99.90;;;;;;5043406;28;20024;-76
2022/12/13 08:46:25;;;;;;;48.17;20.30;;;-3.90;99.90;;;;;;5053135;28;20009;-73
2022/12/13 08:48:52;;;;;;;41.20;20.45;;;-3.90;99.90;;;;;;5046852;28;20385;-75
2022/12/13 08:51:22;;;;;;;40.83;19.60;;;-3.90;99.90;;;;;;5035664;28;20029;-74
2022/12/13 08:53:51;;;;;;;48.08;20.48;;;-3.80;99.90;;;;;;5034633;28;20516;-75
2022/12/13 08:56:19;;;;;;;44.63;20.85;;;-3.80;99.90;;;;;;5034139;28;20049;-76
2022/12/13 08:58:48;;;;;;;56.35;22.13;;;-3.80;99.90;;;;;;5038399;28;20060;-78
2022/12/13 09:01:14;;;;;;;47.92;21.38;;;-3.70;99.90;;;;;;5033947;28;20103;-77
2022/12/13 09:03:39;;;;;;;48.75;23.60;;;-3.70;99.90;;;;;;5032837;28;20034;-78
2022/12/13 09:06:13;;;;;;;55.30;23.05;;;-3.60;99.90;;;;;;5034474;28;20049;-77
2022/12/13 09:08:40;;;;;;;49.65;22.63;;;-3.50;99.90;;;;;;5037212;28;20115;-76
2022/12/13 09:11:06;;;;;;;48.40;22.17;;;-3.50;99.90;;;;;;5036759;28;20060;-83
2022/12/13 09:13:33;;;;;;;47.33;22.02;;;-3.40;99.90;;;;;;5036261;28;20105;-85
2022/12/13 09:16:07;;;;;;;49.05;23.38;;;-3.30;99.90;;;;;;5034164;28;20030;-84
2022/12/13 09:18:32;;;;;;;53.58;22.42;;;-3.20;99.90;;;;;;5032681;28;20096;-85
2022/12/13 09:20:58;;;;;;;52.08;23.27;;;-3.20;99.90;;;;;;5035974;28;20022;-85
2022/12/13 09:23:25;;;;;;;56.50;23.15;;;-3.10;99.90;;;;;;5035108;28;20041;-81
2022/12/13 09:25:55;;;;;;;56.03;23.98;;;-3.10;99.90;;;;;;5035609;28;20064;-82
2022/12/13 09:28:21;;;;;;;54.65;23.38;;;-3.00;99.90;;;;;;5034632;28;20033;-82
2022/12/13 09:30:47;;;;;;;51.55;23.55;;;-1.90;99.90;;;;;;5032975;28;20398;-82
2022/12/13 09:33:13;;;;;;;60.85;24.35;;;-2.90;99.90;;;;;;5033891;28;20018;-81
2022/12/13 09:35:39;;;;;;;52.13;23.42;;;-2.90;99.90;;;;;;5034231;28;20018;-79
2022/12/13 09:38:04;;;;;;;52.15;24.95;;;-2.80;99.90;;;;;;5033879;28;20034;-80
2022/12/13 09:40:30;;;;;;;52.17;25.60;;;-2.70;99.90;;;;;;5036238;28;20442;-81
2022/12/13 09:42:58;;;;;;;46.28;21.98;;;-2.70;99.90;;;;;;5037560;28;20041;-79
2022/12/13 09:45:24;;;;;;;50.92;23.63;;;-2.60;99.90;;;;;;5032700;28;20084;-79
2022/12/13 09:47:51;;;;;;;56.80;23.77;;;-2.50;99.90;;;;;;5035706;28;20018;-80
2022/12/13 09:50:35;;;;;;;56.42;24.90;;;-2.40;99.90;;;;;;5034193;28;21080;-80
2022/12/13 09:53:03;;;;;;;52.67;24.13;;;-2.30;99.90;;;;;;5032108;28;20030;-80
2022/12/13 09:55:38;;;;;;;48.35;23.90;;;-2.20;99.90;;;;;;5032364;28;20029;-81
2022/12/13 09:58:26;;;;;;;52.78;24.40;;;-2.20;99.90;;;;;;5039175;28;20026;-78
2022/12/13 10:00:54;;;;;;;60.25;27.38;;;-2.20;99.90;;;;;;5038609;28;20037;-78
2022/12/13 10:03:21;;;;;;;55.50;26.92;;;-2.10;99.90;;;;;;5042741;28;20044;-79
2022/12/13 10:06:11;;;;;;;53.42;26.95;;;-1.90;99.90;;;;;;5046839;28;20028;-79
2022/12/13 10:09:00;;;;;;;54.17;25.13;;;-2.00;99.90;;;;;;5036706;28;20025;-78
2022/12/13 10:11:27;;;;;;;52.65;25.83;;;-2.00;99.90;;;;;;5037432;28;20033;-78
2022/12/13 10:14:38;;;;;;;58.22;26.52;;;-2.00;99.90;;;;;;5032147;28;20056;-77
2022/12/13 10:17:07;;;;;;;54.83;27.15;;;-1.80;99.90;;;;;;5032147;28;20029;-77
2022/12/13 10:19:41;;;;;;;54.65;25.95;;;-1.80;99.90;;;;;;5032450;28;20167;-78
2022/12/13 10:22:13;;;;;;;57.30;27.15;;;-1.70;99.90;;;;;;5030217;28;20033;-77
2022/12/13 10:24:59;;;;;;;57.85;26.00;;;-1.60;99.90;;;;;;5028576;28;20038;-76
2022/12/13 10:27:31;;;;;;;53.90;26.95;;;-1.60;99.90;;;;;;5031399;28;20069;-77
2022/12/13 10:30:04;;;;;;;49.80;25.88;;;-1.50;99.90;;;;;;5030472;28;20060;-78
2022/12/13 10:32:33;;;;;;;68.10;27.77;;;-1.40;99.90;;;;;;5031994;28;20025;-77
2022/12/13 10:34:59;;;;;;;57.45;26.92;;;-1.30;99.90;;;;;;5031583;28;20018;-78
2022/12/13 10:37:28;;;;;;;53.60;26.10;;;-1.20;99.90;;;;;;5032351;28;20040;-76
2022/12/13 10:39:56;;;;;;;42.67;20.37;;;-1.20;99.90;;;;;;5033569;28;20493;-76
2022/12/13 10:42:22;;;;;;;60.55;26.80;;;-1.10;99.90;;;;;;5034389;28;20060;-77
2022/12/13 10:44:48;;;;;;;58.85;27.70;;;-1.10;99.90;;;;;;5034498;28;20083;-77
2022/12/13 10:47:23;;;;;;;55.25;28.90;;;-1.00;99.90;;;;;;5035378;28;20095;-76
2022/12/13 10:49:57;;;;;;;53.22;26.85;;;-1.00;99.90;;;;;;5035059;28;20373;-77
2022/12/13 10:52:22;;;;;;;49.90;25.40;;;-1.10;99.90;;;;;;5034785;28;20489;-76
2022/12/13 10:54:49;;;;;;;56.28;27.02;;;-1.00;99.90;;;;;;5035022;28;20040;-76
2022/12/13 10:57:16;;;;;;;55.85;26.83;;;-1.00;99.90;;;;;;5034728;28;20034;-75
2022/12/13 10:59:43;;;;;;;54.03;26.65;;;-0.90;99.90;;;;;;5034271;28;20049;-78
2022/12/13 11:02:38;;;;;;;52.05;26.88;;;-0.90;99.90;;;;;;5030823;28;20507;-75
2022/12/13 11:05:25;;;;;;;57.67;27.52;;;-0.80;99.90;;;;;;5033326;28;20036;-76
2022/12/13 11:07:52;;;;;;;51.13;26.02;;;-0.70;99.90;;;;;;5036279;28;20029;-76
2022/12/13 11:10:27;;;;;;;53.10;24.20;;;-0.60;99.90;;;;;;5034062;28;20389;-75
2022/12/13 11:13:01;;;;;;;47.70;24.75;;;-0.60;99.90;;;;;;5034746;28;20047;-75
2022/12/13 11:15:29;;;;;;;49.83;25.70;;;-0.50;99.90;;;;;;5034883;28;20498;-76
2022/12/13 11:17:59;;;;;;;45.65;24.25;;;-0.50;99.90;;;;;;5034047;28;20112;-76
2022/12/13 11:20:29;;;;;;;53.45;25.63;;;-0.40;99.90;;;;;;5035997;28;20029;-75
2022/12/13 11:23:21;;;;;;;47.47;24.25;;;-0.40;99.90;;;;;;5034128;28;20061;-75
2022/12/13 11:25:47;;;;;;;47.05;24.67;;;-0.40;99.90;;;;;;5033974;28;20055;-77
2022/12/13 11:28:44;;;;;;;49.00;24.25;;;-0.30;99.90;;;;;;5030354;28;20355;-76
2022/12/13 11:31:59;;;;;;;45.95;23.20;;;-0.30;99.90;;;;;;5031471;28;20545;-76
2022/12/13 11:34:49;;;;;;;46.45;24.75;;;-0.20;99.90;;;;;;5033337;28;20044;-75
2022/12/13 11:37:18;;;;;;;;;;;-0.20;99.90;;;;;;5032613;28;20021;-76
2022/12/13 11:39:52;;;;;;;44.10;23.13;;;-0.20;99.90;;;;;;5036950;28;19976;-74
2022/12/13 11:42:25;;;;;;;47.17;22.98;;;-0.20;99.90;;;;;;5037047;28;20511;-78
2022/12/13 11:45:01;;;;;;;47.85;23.63;;;-0.20;99.90;;;;;;5037818;28;20025;-77
2022/12/13 11:47:34;;;;;;;42.67;21.80;;;-0.20;99.90;;;;;;5034159;28;20026;-76
2022/12/13 11:50:04;;;;;;;45.15;23.17;;;-0.20;99.90;;;;;;5036928;28;20068;-76
2022/12/13 11:52:43;;;;;;;44.83;23.30;;;-0.20;99.90;;;;;;5035377;28;20021;-76
2022/12/13 11:55:17;;;;;;;43.42;24.15;;;-0.20;99.90;;;;;;5036793;28;20017;-75
2022/12/13 11:57:55;;;;;;;54.00;24.50;;;-0.20;99.90;;;;;;5034673;28;20104;-76
2022/12/13 12:00:26;;;;;;;44.53;22.67;;;-0.20;99.90;;;;;;5037469;28;20036;-76
2022/12/13 12:02:57;;;;;;;43.97;21.90;;;1.00;99.90;;;;;;5034412;28;20475;-77
2022/12/13 12:05:39;;;;;;;40.58;21.55;;;-0.10;99.90;;;;;;5035750;28;20036;-77
2022/12/13 12:08:43;;;;;;;41.03;21.48;;;-0.10;99.90;;;;;;5030114;28;20034;-77
2022/12/13 12:11:13;;;;;;;38.97;22.17;;;0.00;99.90;;;;;;5020335;28;20026;-77
2022/12/13 12:13:44;;;;;;;41.58;21.13;;;0.10;99.90;;;;;;5022282;28;20386;-76
2022/12/13 12:16:37;;;;;;;46.00;23.25;;;0.10;99.90;;;;;;5031322;28;20504;-78
2022/12/13 12:19:11;;;;;;;41.55;23.42;;;0.20;99.90;;;;;;5026980;28;20029;-77
2022/12/13 12:22:01;;;;;;;42.47;22.33;;;0.40;99.90;;;;;;5025057;28;20026;-77
2022/12/13 12:24:59;;;;;;;44.00;21.15;;;0.40;99.90;;;;;;5022163;28;20076;-76
2022/12/13 12:27:50;;;;;;;46.47;22.67;;;0.40;99.90;;;;;;5034471;28;20065;-75
2022/12/13 12:30:43;;;;;;;43.38;21.60;;;0.50;99.90;;;;;;5044613;28;20049;-76
2022/12/13 12:33:31;;;;;;;38.85;21.05;;;0.50;99.90;;;;;;5020028;28;20393;-77
2022/12/13 12:36:10;;;;;;;42.05;21.83;;;0.50;99.90;;;;;;5035108;28;20070;-79
2022/12/13 12:38:59;;;;;;;40.70;21.00;;;0.50;99.90;;;;;;5029385;28;20112;-77
2022/12/13 12:41:34;;;;;;;40.65;21.33;;;0.60;99.90;;;;;;5053778;28;20078;-79
2022/12/13 12:44:10;;;;;;;41.83;21.30;;;0.60;99.90;;;;;;5055800;28;20131;-78
2022/12/13 12:46:50;;;;;;;37.97;20.60;;;0.60;99.90;;;;;;5055905;28;20021;-78
2022/12/13 12:49:40;;;;;;;36.90;20.90;;;0.60;99.90;;;;;;5057040;28;20036;-77